sensor_id;sensor_type;location;lat;lon;timestamp;temperature;humidity
18191;DHT22;47004;51.366;12.348;2023-10-19T00:01:40;7.10;99.90
18191;DHT22;47004;51.366;12.348;2023-10-19T00:03:42;7.10;99.90
18191;DHT22;47004;51.366;12.348;2023-10-19T00:05:45;7.10;99.90
18191;DHT22;47004;51.366;12.348;2023-10-19T00:07:47;7.20;99.90
18191;DHT22;47004;51.366;12.348;2023-10-19T00:09:48;7.20;99.90
18191;DHT22;47004;51.366;12.348;2023-10-19T00:11:55;7.10;99.90
18191;DHT22;47004;51.366;12.348;2023-10-19T00:13:56;7.20;99.90
18191;DHT22;47004;51.366;12.348;2023-10-19T00:15:59;7.20;99.90
18191;DHT22;47004;51.366;12.348;2023-10-19T00:18:00;7.20;99.90
18191;DHT22;47004;51.366;12.348;2023-10-19T00:20:14;7.20;99.90
18191;DHT22;47004;51.366;12.348;2023-10-19T00:22:51;7.30;99.90
18191;DHT22;47004;51.366;12.348;2023-10-19T00:24:54;7.30;99.90
18191;DHT22;47004;51.366;12.348;2023-10-19T00:26:56;7.30;99.90
18191;DHT22;47004;51.366;12.348;2023-10-19T00:29:06;7.30;99.90
18191;DHT22;47004;51.366;12.348;2023-10-19T00:31:28;7.30;99.90
18191;DHT22;47004;51.366;12.348;2023-10-19T00:33:35;7.30;99.90
18191;DHT22;47004;51.366;12.348;2023-10-19T00:35:41;7.30;99.90
18191;DHT22;47004;51.366;12.348;2023-10-19T00:37:53;7.30;99.90
18191;DHT22;47004;51.366;12.348;2023-10-19T00:39:57;7.30;99.90
18191;DHT22;47004;51.366;12.348;2023-10-19T00:42:16;7.40;99.90
18191;DHT22;47004;51.366;12.348;2023-10-19T00:44:24;7.40;99.90
18191;DHT22;47004;51.366;12.348;2023-10-19T00:46:37;7.40;99.90
18191;DHT22;47004;51.366;12.348;2023-10-19T00:48:45;7.40;99.90
18191;DHT22;47004;51.366;12.348;2023-10-19T00:50:47;7.50;99.90
18191;DHT22;47004;51.366;12.348;2023-10-19T00:52:53;7.40;99.90
18191;DHT22;47004;51.366;12.348;2023-10-19T00:54:58;7.40;99.90
18191;DHT22;47004;51.366;12.348;2023-10-19T00:57:04;7.50;99.90
18191;DHT22;47004;51.366;12.348;2023-10-19T00:59:10;7.50;99.90
18191;DHT22;47004;51.366;12.348;2023-10-19T01:01:15;7.50;99.90
18191;DHT22;47004;51.366;12.348;2023-10-19T01:03:19;7.50;99.90
18191;DHT22;47004;51.366;12.348;2023-10-19T01:05:22;7.50;99.90
18191;DHT22;47004;51.366;12.348;2023-10-19T01:07:24;7.50;99.90
18191;DHT22;47004;51.366;12.348;2023-10-19T01:09:30;7.50;99.90
18191;DHT22;47004;51.366;12.348;2023-10-19T01:11:35;7.50;99.90
18191;DHT22;47004;51.366;12.348;2023-10-19T01:13:37;7.60;99.90
18191;DHT22;47004;51.366;12.348;2023-10-19T01:15:46;7.60;99.90
18191;DHT22;47004;51.366;12.348;2023-10-19T01:17:51;7.60;99.90
18191;DHT22;47004;51.366;12.348;2023-10-19T01:19:53;7.60;99.90
18191;DHT22;47004;51.366;12.348;2023-10-19T01:21:54;7.60;99.90
18191;DHT22;47004;51.366;12.348;2023-10-19T01:24:06;7.70;99.90
18191;DHT22;47004;51.366;12.348;2023-10-19T01:26:08;7.60;99.90
18191;DHT22;47004;51.366;12.348;2023-10-19T01:28:11;7.60;99.90
18191;DHT22;47004;51.366;12.348;2023-10-19T01:30:17;7.60;99.90
18191;DHT22;47004;51.366;12.348;2023-10-19T01:32:19;7.60;99.90
18191;DHT22;47004;51.366;12.348;2023-10-19T01:34:21;7.60;99.90
18191;DHT22;47004;51.366;12.348;2023-10-19T01:36:24;7.90;99.90
18191;DHT22;47004;51.366;12.348;2023-10-19T01:38:29;7.60;99.90
18191;DHT22;47004;51.366;12.348;2023-10-19T01:40:32;7.60;99.90
18191;DHT22;47004;51.366;12.348;2023-10-19T01:42:35;7.60;99.90
18191;DHT22;47004;51.366;12.348;2023-10-19T01:44:36;7.70;99.90
18191;DHT22;47004;51.366;12.348;2023-10-19T01:46:38;7.70;99.90
18191;DHT22;47004;51.366;12.348;2023-10-19T01:48:40;7.70;99.90
18191;DHT22;47004;51.366;12.348;2023-10-19T01:50:42;7.70;99.90
18191;DHT22;47004;51.366;12.348;2023-10-19T01:52:44;7.70;99.90
18191;DHT22;47004;51.366;12.348;2023-10-19T01:54:46;7.70;99.90
18191;DHT22;47004;51.366;12.348;2023-10-19T01:56:49;7.70;99.90
18191;DHT22;47004;51.366;12.348;2023-10-19T01:58:55;7.70;99.90
18191;DHT22;47004;51.366;12.348;2023-10-19T02:00:57;7.70;99.90
18191;DHT22;47004;51.366;12.348;2023-10-19T02:03:00;7.70;99.90
18191;DHT22;47004;51.366;12.348;2023-10-19T02:05:08;7.70;99.90
18191;DHT22;47004;51.366;12.348;2023-10-19T02:07:15;7.70;99.90
18191;DHT22;47004;51.366;12.348;2023-10-19T02:09:18;7.70;99.90
18191;DHT22;47004;51.366;12.348;2023-10-19T02:11:24;7.70;99.90
18191;DHT22;47004;51.366;12.348;2023-10-19T02:13:27;7.80;99.90
18191;DHT22;47004;51.366;12.348;2023-10-19T02:15:29;7.70;99.90
18191;DHT22;47004;51.366;12.348;2023-10-19T02:17:30;7.70;99.90
18191;DHT22;47004;51.366;12.348;2023-10-19T02:19:32;7.80;99.90
18191;DHT22;47004;51.366;12.348;2023-10-19T02:21:35;7.80;99.90
18191;DHT22;47004;51.366;12.348;2023-10-19T02:23:40;7.80;99.90
18191;DHT22;47004;51.366;12.348;2023-10-19T02:25:42;7.80;99.90
18191;DHT22;47004;51.366;12.348;2023-10-19T02:27:45;7.70;99.90
18191;DHT22;47004;51.366;12.348;2023-10-19T02:29:47;7.70;99.90
18191;DHT22;47004;51.366;12.348;2023-10-19T02:31:51;7.70;99.90
18191;DHT22;47004;51.366;12.348;2023-10-19T02:33:54;7.70;99.90
18191;DHT22;47004;51.366;12.348;2023-10-19T02:36:00;7.70;99.90
18191;DHT22;47004;51.366;12.348;2023-10-19T02:38:01;7.70;99.90
18191;DHT22;47004;51.366;12.348;2023-10-19T02:40:06;7.70;99.90
18191;DHT22;47004;51.366;12.348;2023-10-19T02:42:13;7.60;99.90
18191;DHT22;47004;51.366;12.348;2023-10-19T02:44:16;7.60;99.90
18191;DHT22;47004;51.366;12.348;2023-10-19T02:46:21;7.60;99.90
18191;DHT22;47004;51.366;12.348;2023-10-19T02:48:24;7.60;99.90
18191;DHT22;47004;51.366;12.348;2023-10-19T02:50:26;7.60;99.90
18191;DHT22;47004;51.366;12.348;2023-10-19T02:52:30;7.60;99.90
18191;DHT22;47004;51.366;12.348;2023-10-19T02:54:32;7.60;99.90
18191;DHT22;47004;51.366;12.348;2023-10-19T02:56:34;7.60;99.90
18191;DHT22;47004;51.366;12.348;2023-10-19T02:58:39;7.60;99.90
18191;DHT22;47004;51.366;12.348;2023-10-19T03:00:42;7.60;99.90
18191;DHT22;47004;51.366;12.348;2023-10-19T03:02:48;7.50;99.90
18191;DHT22;47004;51.366;12.348;2023-10-19T03:04:53;7.50;99.90
18191;DHT22;47004;51.366;12.348;2023-10-19T03:06:55;7.50;99.90
18191;DHT22;47004;51.366;12.348;2023-10-19T03:08:56;7.60;99.90
18191;DHT22;47004;51.366;12.348;2023-10-19T03:11:01;7.50;99.90
18191;DHT22;47004;51.366;12.348;2023-10-19T03:13:04;7.50;99.90
18191;DHT22;47004;51.366;12.348;2023-10-19T03:15:07;7.50;99.90
18191;DHT22;47004;51.366;12.348;2023-10-19T03:17:08;7.50;99.90
18191;DHT22;47004;51.366;12.348;2023-10-19T03:19:12;7.50;99.90
18191;DHT22;47004;51.366;12.348;2023-10-19T03:21:13;7.50;99.90
18191;DHT22;47004;51.366;12.348;2023-10-19T03:23:16;7.40;99.90
18191;DHT22;47004;51.366;12.348;2023-10-19T03:25:17;7.40;99.90
18191;DHT22;47004;51.366;12.348;2023-10-19T03:27:37;7.40;99.90
18191;DHT22;47004;51.366;12.348;2023-10-19T03:29:39;7.40;99.90
18191;DHT22;47004;51.366;12.348;2023-10-19T03:31:41;7.40;99.90
18191;DHT22;47004;51.366;12.348;2023-10-19T03:33:45;7.40;99.90
18191;DHT22;47004;51.366;12.348;2023-10-19T03:35:51;7.40;99.90
18191;DHT22;47004;51.366;12.348;2023-10-19T03:37:54;7.40;99.90
18191;DHT22;47004;51.366;12.348;2023-10-19T03:39:59;7.40;99.90
18191;DHT22;47004;51.366;12.348;2023-10-19T03:42:07;7.40;99.90
18191;DHT22;47004;51.366;12.348;2023-10-19T03:44:09;7.40;99.90
18191;DHT22;47004;51.366;12.348;2023-10-19T03:46:19;7.30;99.90
18191;DHT22;47004;51.366;12.348;2023-10-19T03:48:28;7.30;99.90
18191;DHT22;47004;51.366;12.348;2023-10-19T03:50:36;7.30;99.90
18191;DHT22;47004;51.366;12.348;2023-10-19T03:52:41;7.30;99.90
18191;DHT22;47004;51.366;12.348;2023-10-19T03:54:43;7.30;99.90
18191;DHT22;47004;51.366;12.348;2023-10-19T03:56:45;7.30;99.90
18191;DHT22;47004;51.366;12.348;2023-10-19T03:58:48;7.30;99.90
18191;DHT22;47004;51.366;12.348;2023-10-19T04:00:51;7.30;99.90
18191;DHT22;47004;51.366;12.348;2023-10-19T04:02:53;7.30;99.90
18191;DHT22;47004;51.366;12.348;2023-10-19T04:04:56;7.30;99.90
18191;DHT22;47004;51.366;12.348;2023-10-19T04:06:58;7.30;99.90
18191;DHT22;47004;51.366;12.348;2023-10-19T04:09:01;7.30;99.90
18191;DHT22;47004;51.366;12.348;2023-10-19T04:11:05;7.30;99.90
18191;DHT22;47004;51.366;12.348;2023-10-19T04:13:09;7.30;99.90
18191;DHT22;47004;51.366;12.348;2023-10-19T04:15:11;7.30;99.90
18191;DHT22;47004;51.366;12.348;2023-10-19T04:17:16;7.30;99.90
18191;DHT22;47004;51.366;12.348;2023-10-19T04:19:21;7.30;99.90
18191;DHT22;47004;51.366;12.348;2023-10-19T04:21:23;7.30;99.90
18191;DHT22;47004;51.366;12.348;2023-10-19T04:23:27;7.30;99.90
18191;DHT22;47004;51.366;12.348;2023-10-19T04:25:30;7.30;99.90
18191;DHT22;47004;51.366;12.348;2023-10-19T04:27:32;7.30;99.90
18191;DHT22;47004;51.366;12.348;2023-10-19T04:29:36;7.30;99.90
18191;DHT22;47004;51.366;12.348;2023-10-19T04:31:40;7.30;99.90
18191;DHT22;47004;51.366;12.348;2023-10-19T04:33:50;7.30;99.90
18191;DHT22;47004;51.366;12.348;2023-10-19T04:35:52;7.30;99.90
18191;DHT22;47004;51.366;12.348;2023-10-19T04:37:56;7.30;99.90
18191;DHT22;47004;51.366;12.348;2023-10-19T04:39:58;7.30;99.90
18191;DHT22;47004;51.366;12.348;2023-10-19T04:42:02;7.30;99.90
18191;DHT22;47004;51.366;12.348;2023-10-19T04:44:05;7.30;99.90
18191;DHT22;47004;51.366;12.348;2023-10-19T04:46:10;7.20;99.90
18191;DHT22;47004;51.366;12.348;2023-10-19T04:48:13;7.30;99.90
18191;DHT22;47004;51.366;12.348;2023-10-19T04:50:14;7.20;99.90
18191;DHT22;47004;51.366;12.348;2023-10-19T04:52:16;7.30;99.90
18191;DHT22;47004;51.366;12.348;2023-10-19T04:54:19;7.20;99.90
18191;DHT22;47004;51.366;12.348;2023-10-19T04:56:21;7.20;99.90
18191;DHT22;47004;51.366;12.348;2023-10-19T04:58:24;7.20;99.90
18191;DHT22;47004;51.366;12.348;2023-10-19T05:00:25;7.20;99.90
18191;DHT22;47004;51.366;12.348;2023-10-19T05:02:28;7.20;99.90
18191;DHT22;47004;51.366;12.348;2023-10-19T05:04:30;6.90;99.90
18191;DHT22;47004;51.366;12.348;2023-10-19T05:06:32;7.30;99.90
18191;DHT22;47004;51.366;12.348;2023-10-19T05:08:34;7.20;99.90
18191;DHT22;47004;51.366;12.348;2023-10-19T05:10:37;7.20;99.90
18191;DHT22;47004;51.366;12.348;2023-10-19T05:12:38;7.10;99.90
18191;DHT22;47004;51.366;12.348;2023-10-19T05:14:42;7.20;99.90
18191;DHT22;47004;51.366;12.348;2023-10-19T05:16:46;7.20;99.90
18191;DHT22;47004;51.366;12.348;2023-10-19T05:18:48;7.20;99.90
18191;DHT22;47004;51.366;12.348;2023-10-19T05:20:50;7.20;99.90
18191;DHT22;47004;51.366;12.348;2023-10-19T05:22:56;7.20;99.90
18191;DHT22;47004;51.366;12.348;2023-10-19T05:24:58;7.20;99.90
18191;DHT22;47004;51.366;12.348;2023-10-19T05:27:02;7.20;99.90
18191;DHT22;47004;51.366;12.348;2023-10-19T05:29:04;7.20;99.90
18191;DHT22;47004;51.366;12.348;2023-10-19T05:31:07;7.20;99.90
18191;DHT22;47004;51.366;12.348;2023-10-19T05:33:09;7.20;99.90
18191;DHT22;47004;51.366;12.348;2023-10-19T05:35:11;7.20;99.90
18191;DHT22;47004;51.366;12.348;2023-10-19T05:37:13;7.20;99.90
18191;DHT22;47004;51.366;12.348;2023-10-19T05:39:16;7.20;99.90
18191;DHT22;47004;51.366;12.348;2023-10-19T05:41:18;7.20;99.90
18191;DHT22;47004;51.366;12.348;2023-10-19T05:43:21;7.20;99.90
18191;DHT22;47004;51.366;12.348;2023-10-19T05:45:24;7.20;99.90
18191;DHT22;47004;51.366;12.348;2023-10-19T05:47:28;7.20;99.90
18191;DHT22;47004;51.366;12.348;2023-10-19T05:49:32;7.20;99.90
18191;DHT22;47004;51.366;12.348;2023-10-19T05:51:34;7.10;99.90
18191;DHT22;47004;51.366;12.348;2023-10-19T05:53:36;7.20;99.90
18191;DHT22;47004;51.366;12.348;2023-10-19T05:55:38;7.20;99.90
18191;DHT22;47004;51.366;12.348;2023-10-19T05:57:41;7.20;99.90
18191;DHT22;47004;51.366;12.348;2023-10-19T05:59:43;7.20;99.90
18191;DHT22;47004;51.366;12.348;2023-10-19T06:01:44;7.20;99.90
18191;DHT22;47004;51.366;12.348;2023-10-19T06:03:49;7.20;99.90
18191;DHT22;47004;51.366;12.348;2023-10-19T06:05:51;7.20;99.90
18191;DHT22;47004;51.366;12.348;2023-10-19T06:07:55;7.20;99.90
18191;DHT22;47004;51.366;12.348;2023-10-19T06:09:57;7.20;99.90
18191;DHT22;47004;51.366;12.348;2023-10-19T06:12:01;7.20;99.90
18191;DHT22;47004;51.366;12.348;2023-10-19T06:14:04;7.20;99.90
18191;DHT22;47004;51.366;12.348;2023-10-19T06:16:07;7.20;99.90
18191;DHT22;47004;51.366;12.348;2023-10-19T06:18:09;7.20;99.90
18191;DHT22;47004;51.366;12.348;2023-10-19T06:20:13;7.20;99.90
18191;DHT22;47004;51.366;12.348;2023-10-19T06:22:24;7.20;99.90
18191;DHT22;47004;51.366;12.348;2023-10-19T06:24:26;7.20;99.90
18191;DHT22;47004;51.366;12.348;2023-10-19T06:26:28;7.20;99.90
18191;DHT22;47004;51.366;12.348;2023-10-19T06:28:30;7.30;99.90
18191;DHT22;47004;51.366;12.348;2023-10-19T06:30:34;7.20;99.90
18191;DHT22;47004;51.366;12.348;2023-10-19T06:32:36;7.20;99.90
18191;DHT22;47004;51.366;12.348;2023-10-19T06:34:38;7.30;99.90
18191;DHT22;47004;51.366;12.348;2023-10-19T06:36:42;7.20;99.90
18191;DHT22;47004;51.366;12.348;2023-10-19T06:38:44;7.30;99.90
18191;DHT22;47004;51.366;12.348;2023-10-19T06:40:47;7.30;99.90
18191;DHT22;47004;51.366;12.348;2023-10-19T06:42:49;7.30;99.90
18191;DHT22;47004;51.366;12.348;2023-10-19T06:44:51;7.30;99.90
18191;DHT22;47004;51.366;12.348;2023-10-19T06:46:56;7.30;99.90
18191;DHT22;47004;51.366;12.348;2023-10-19T06:48:58;7.30;99.90
18191;DHT22;47004;51.366;12.348;2023-10-19T06:51:00;7.40;99.90
18191;DHT22;47004;51.366;12.348;2023-10-19T06:53:04;7.30;99.90
18191;DHT22;47004;51.366;12.348;2023-10-19T06:55:07;7.30;99.90
18191;DHT22;47004;51.366;12.348;2023-10-19T06:57:13;7.40;99.90
18191;DHT22;47004;51.366;12.348;2023-10-19T06:59:15;7.40;99.90
18191;DHT22;47004;51.366;12.348;2023-10-19T07:01:17;7.40;99.90
18191;DHT22;47004;51.366;12.348;2023-10-19T07:03:23;7.40;99.90
18191;DHT22;47004;51.366;12.348;2023-10-19T07:05:26;7.50;99.90
18191;DHT22;47004;51.366;12.348;2023-10-19T07:07:30;7.40;99.90
18191;DHT22;47004;51.366;12.348;2023-10-19T07:09:33;7.50;99.90
18191;DHT22;47004;51.366;12.348;2023-10-19T07:11:37;7.50;99.90
18191;DHT22;47004;51.366;12.348;2023-10-19T07:13:38;7.50;99.90
18191;DHT22;47004;51.366;12.348;2023-10-19T07:15:40;7.50;99.90
18191;DHT22;47004;51.366;12.348;2023-10-19T07:17:43;7.50;99.90
18191;DHT22;47004;51.366;12.348;2023-10-19T07:19:45;7.50;99.90
18191;DHT22;47004;51.366;12.348;2023-10-19T07:21:49;7.60;99.90
18191;DHT22;47004;51.366;12.348;2023-10-19T07:23:58;7.60;99.90
18191;DHT22;47004;51.366;12.348;2023-10-19T07:26:03;7.60;99.90
18191;DHT22;47004;51.366;12.348;2023-10-19T07:28:06;7.60;99.90
18191;DHT22;47004;51.366;12.348;2023-10-19T07:30:09;7.60;99.90
18191;DHT22;47004;51.366;12.348;2023-10-19T07:32:11;7.60;99.90
18191;DHT22;47004;51.366;12.348;2023-10-19T07:34:14;7.60;99.90
18191;DHT22;47004;51.366;12.348;2023-10-19T07:36:16;7.70;99.90
18191;DHT22;47004;51.366;12.348;2023-10-19T07:38:19;8.00;99.90
18191;DHT22;47004;51.366;12.348;2023-10-19T07:40:22;7.70;99.90
18191;DHT22;47004;51.366;12.348;2023-10-19T07:42:26;7.70;99.90
18191;DHT22;47004;51.366;12.348;2023-10-19T07:44:28;7.80;99.90
18191;DHT22;47004;51.366;12.348;2023-10-19T07:46:30;7.80;99.90
18191;DHT22;47004;51.366;12.348;2023-10-19T07:48:32;7.80;99.90
18191;DHT22;47004;51.366;12.348;2023-10-19T07:50:35;7.90;99.90
18191;DHT22;47004;51.366;12.348;2023-10-19T07:52:38;7.90;99.90
18191;DHT22;47004;51.366;12.348;2023-10-19T07:54:40;7.90;99.90
18191;DHT22;47004;51.366;12.348;2023-10-19T07:56:42;7.90;99.90
18191;DHT22;47004;51.366;12.348;2023-10-19T07:58:45;7.90;99.90
18191;DHT22;47004;51.366;12.348;2023-10-19T08:00:47;8.00;99.90
18191;DHT22;47004;51.366;12.348;2023-10-19T08:02:49;8.00;99.90
18191;DHT22;47004;51.366;12.348;2023-10-19T08:04:52;8.00;99.90
18191;DHT22;47004;51.366;12.348;2023-10-19T08:06:54;8.20;99.90
18191;DHT22;47004;51.366;12.348;2023-10-19T08:08:56;8.10;99.90
18191;DHT22;47004;51.366;12.348;2023-10-19T08:10:58;8.10;99.90
18191;DHT22;47004;51.366;12.348;2023-10-19T08:13:01;8.20;99.90
18191;DHT22;47004;51.366;12.348;2023-10-19T08:15:05;8.20;99.90
18191;DHT22;47004;51.366;12.348;2023-10-19T08:17:08;8.20;99.90
18191;DHT22;47004;51.366;12.348;2023-10-19T08:19:10;8.30;99.90
18191;DHT22;47004;51.366;12.348;2023-10-19T08:21:12;8.40;99.90
18191;DHT22;47004;51.366;12.348;2023-10-19T08:23:14;8.40;99.90
18191;DHT22;47004;51.366;12.348;2023-10-19T08:25:24;8.40;99.90
18191;DHT22;47004;51.366;12.348;2023-10-19T08:27:27;8.40;99.90
18191;DHT22;47004;51.366;12.348;2023-10-19T08:29:29;8.50;99.90
18191;DHT22;47004;51.366;12.348;2023-10-19T08:31:32;8.50;99.90
18191;DHT22;47004;51.366;12.348;2023-10-19T08:33:36;8.50;99.90
18191;DHT22;47004;51.366;12.348;2023-10-19T08:35:39;8.60;99.90
18191;DHT22;47004;51.366;12.348;2023-10-19T08:37:41;8.60;99.90
18191;DHT22;47004;51.366;12.348;2023-10-19T08:39:45;8.60;99.90
18191;DHT22;47004;51.366;12.348;2023-10-19T08:41:47;8.70;99.90
18191;DHT22;47004;51.366;12.348;2023-10-19T08:43:53;8.70;99.90
18191;DHT22;47004;51.366;12.348;2023-10-19T08:45:57;8.70;99.90
18191;DHT22;47004;51.366;12.348;2023-10-19T08:48:01;8.80;99.90
18191;DHT22;47004;51.366;12.348;2023-10-19T08:50:03;8.80;99.90
18191;DHT22;47004;51.366;12.348;2023-10-19T08:52:07;8.80;99.90
18191;DHT22;47004;51.366;12.348;2023-10-19T08:54:11;8.90;99.90
18191;DHT22;47004;51.366;12.348;2023-10-19T08:56:13;8.90;99.90
18191;DHT22;47004;51.366;12.348;2023-10-19T08:58:17;9.00;99.90
18191;DHT22;47004;51.366;12.348;2023-10-19T09:00:20;9.00;99.90
18191;DHT22;47004;51.366;12.348;2023-10-19T09:02:25;9.10;99.90
18191;DHT22;47004;51.366;12.348;2023-10-19T09:04:32;9.10;99.90
18191;DHT22;47004;51.366;12.348;2023-10-19T09:06:34;9.20;99.90
18191;DHT22;47004;51.366;12.348;2023-10-19T09:08:41;9.20;99.90
18191;DHT22;47004;51.366;12.348;2023-10-19T09:10:48;9.30;99.90
18191;DHT22;47004;51.366;12.348;2023-10-19T09:13:00;9.40;99.90
18191;DHT22;47004;51.366;12.348;2023-10-19T09:15:02;9.40;99.90
18191;DHT22;47004;51.366;12.348;2023-10-19T09:17:05;9.50;99.90
18191;DHT22;47004;51.366;12.348;2023-10-19T09:19:07;9.50;99.90
18191;DHT22;47004;51.366;12.348;2023-10-19T09:21:11;9.60;99.90
18191;DHT22;47004;51.366;12.348;2023-10-19T09:23:13;9.60;99.90
18191;DHT22;47004;51.366;12.348;2023-10-19T09:25:14;9.60;99.90
18191;DHT22;47004;51.366;12.348;2023-10-19T09:27:17;9.70;99.90
18191;DHT22;47004;51.366;12.348;2023-10-19T09:29:19;9.70;99.90
18191;DHT22;47004;51.366;12.348;2023-10-19T09:31:21;9.70;99.90
18191;DHT22;47004;51.366;12.348;2023-10-19T09:33:27;9.80;99.90
18191;DHT22;47004;51.366;12.348;2023-10-19T09:35:28;9.80;99.90
18191;DHT22;47004;51.366;12.348;2023-10-19T09:37:34;9.90;99.90
18191;DHT22;47004;51.366;12.348;2023-10-19T09:39:36;10.00;99.90
18191;DHT22;47004;51.366;12.348;2023-10-19T09:41:38;10.00;99.90
18191;DHT22;47004;51.366;12.348;2023-10-19T09:43:43;10.00;99.90
18191;DHT22;47004;51.366;12.348;2023-10-19T09:45:48;10.10;99.90
18191;DHT22;47004;51.366;12.348;2023-10-19T09:47:53;10.20;99.90
18191;DHT22;47004;51.366;12.348;2023-10-19T09:49:57;10.30;99.90
18191;DHT22;47004;51.366;12.348;2023-10-19T09:51:59;10.40;99.90
18191;DHT22;47004;51.366;12.348;2023-10-19T09:54:07;10.50;99.90
18191;DHT22;47004;51.366;12.348;2023-10-19T09:56:15;10.70;99.90
18191;DHT22;47004;51.366;12.348;2023-10-19T09:58:23;10.80;99.90
18191;DHT22;47004;51.366;12.348;2023-10-19T10:00:26;10.80;99.90
18191;DHT22;47004;51.366;12.348;2023-10-19T10:02:32;10.90;99.90
18191;DHT22;47004;51.366;12.348;2023-10-19T10:04:34;11.10;99.90
18191;DHT22;47004;51.366;12.348;2023-10-19T10:06:57;11.10;99.90
18191;DHT22;47004;51.366;12.348;2023-10-19T10:09:02;11.20;99.90
18191;DHT22;47004;51.366;12.348;2023-10-19T10:11:22;11.30;99.90
18191;DHT22;47004;51.366;12.348;2023-10-19T10:13:39;11.30;99.90
18191;DHT22;47004;51.366;12.348;2023-10-19T10:15:48;11.40;99.90
18191;DHT22;47004;51.366;12.348;2023-10-19T10:17:52;11.50;99.90
18191;DHT22;47004;51.366;12.348;2023-10-19T10:20:06;11.50;99.90
18191;DHT22;47004;51.366;12.348;2023-10-19T10:22:29;11.60;99.90
18191;DHT22;47004;51.366;12.348;2023-10-19T10:24:31;11.70;99.90
18191;DHT22;47004;51.366;12.348;2023-10-19T10:26:57;11.70;99.90
18191;DHT22;47004;51.366;12.348;2023-10-19T10:29:12;11.70;99.90
18191;DHT22;47004;51.366;12.348;2023-10-19T10:31:19;11.80;99.90
18191;DHT22;47004;51.366;12.348;2023-10-19T10:33:37;11.80;99.90
18191;DHT22;47004;51.366;12.348;2023-10-19T10:35:59;11.90;99.90
18191;DHT22;47004;51.366;12.348;2023-10-19T10:38:03;11.90;99.90
18191;DHT22;47004;51.366;12.348;2023-10-19T10:40:07;12.00;99.90
18191;DHT22;47004;51.366;12.348;2023-10-19T10:42:09;11.90;99.90
18191;DHT22;47004;51.366;12.348;2023-10-19T10:44:12;12.00;99.90
18191;DHT22;47004;51.366;12.348;2023-10-19T10:46:14;12.00;99.90
18191;DHT22;47004;51.366;12.348;2023-10-19T10:48:15;12.10;99.90
18191;DHT22;47004;51.366;12.348;2023-10-19T10:50:19;12.00;99.90
18191;DHT22;47004;51.366;12.348;2023-10-19T10:52:26;12.00;99.90
18191;DHT22;47004;51.366;12.348;2023-10-19T10:54:31;12.00;99.90
18191;DHT22;47004;51.366;12.348;2023-10-19T10:56:40;12.30;99.90
18191;DHT22;47004;51.366;12.348;2023-10-19T10:58:42;12.10;99.90
18191;DHT22;47004;51.366;12.348;2023-10-19T11:00:44;12.20;99.90
18191;DHT22;47004;51.366;12.348;2023-10-19T11:02:59;12.20;99.90
18191;DHT22;47004;51.366;12.348;2023-10-19T11:05:01;12.30;99.90
18191;DHT22;47004;51.366;12.348;2023-10-19T11:07:04;12.30;99.90
18191;DHT22;47004;51.366;12.348;2023-10-19T11:09:09;12.60;99.90
18191;DHT22;47004;51.366;12.348;2023-10-19T11:11:13;12.50;99.90
18191;DHT22;47004;51.366;12.348;2023-10-19T11:13:22;12.50;99.90
18191;DHT22;47004;51.366;12.348;2023-10-19T11:15:24;12.60;99.90
18191;DHT22;47004;51.366;12.348;2023-10-19T11:17:29;12.70;99.90
18191;DHT22;47004;51.366;12.348;2023-10-19T11:19:40;12.80;99.90
18191;DHT22;47004;51.366;12.348;2023-10-19T11:21:52;12.90;99.90
18191;DHT22;47004;51.366;12.348;2023-10-19T11:23:54;13.00;99.90
18191;DHT22;47004;51.366;12.348;2023-10-19T11:25:58;13.10;99.90
18191;DHT22;47004;51.366;12.348;2023-10-19T11:28:01;13.20;99.90
18191;DHT22;47004;51.366;12.348;2023-10-19T11:30:06;13.30;99.90
18191;DHT22;47004;51.366;12.348;2023-10-19T11:32:11;13.30;99.90
18191;DHT22;47004;51.366;12.348;2023-10-19T11:34:13;13.40;99.90
18191;DHT22;47004;51.366;12.348;2023-10-19T11:36:20;13.50;99.90
18191;DHT22;47004;51.366;12.348;2023-10-19T11:38:23;13.60;99.90
18191;DHT22;47004;51.366;12.348;2023-10-19T11:40:26;13.70;99.90
18191;DHT22;47004;51.366;12.348;2023-10-19T11:42:27;13.80;99.90
18191;DHT22;47004;51.366;12.348;2023-10-19T11:44:30;13.80;99.90
18191;DHT22;47004;51.366;12.348;2023-10-19T11:46:32;13.90;99.90
18191;DHT22;47004;51.366;12.348;2023-10-19T11:48:37;13.90;99.90
18191;DHT22;47004;51.366;12.348;2023-10-19T11:50:40;14.00;99.90
18191;DHT22;47004;51.366;12.348;2023-10-19T11:52:41;14.00;99.90
18191;DHT22;47004;51.366;12.348;2023-10-19T11:54:44;14.00;99.90
18191;DHT22;47004;51.366;12.348;2023-10-19T11:56:46;14.00;99.90
18191;DHT22;47004;51.366;12.348;2023-10-19T11:58:47;14.10;99.90
18191;DHT22;47004;51.366;12.348;2023-10-19T12:00:50;14.00;99.90
18191;DHT22;47004;51.366;12.348;2023-10-19T12:02:52;14.00;99.90
18191;DHT22;47004;51.366;12.348;2023-10-19T12:04:53;14.00;99.90
18191;DHT22;47004;51.366;12.348;2023-10-19T12:06:55;14.00;99.90
18191;DHT22;47004;51.366;12.348;2023-10-19T12:08:57;14.00;99.90
18191;DHT22;47004;51.366;12.348;2023-10-19T12:11:00;14.00;99.90
18191;DHT22;47004;51.366;12.348;2023-10-19T12:13:04;14.00;99.90
18191;DHT22;47004;51.366;12.348;2023-10-19T12:15:09;14.00;99.90
18191;DHT22;47004;51.366;12.348;2023-10-19T12:17:14;14.00;99.90
18191;DHT22;47004;51.366;12.348;2023-10-19T12:19:18;13.90;99.90
18191;DHT22;47004;51.366;12.348;2023-10-19T12:21:19;13.90;99.90
18191;DHT22;47004;51.366;12.348;2023-10-19T12:23:28;13.90;99.90
18191;DHT22;47004;51.366;12.348;2023-10-19T12:25:31;13.90;99.90
18191;DHT22;47004;51.366;12.348;2023-10-19T12:27:33;13.90;99.90
18191;DHT22;47004;51.366;12.348;2023-10-19T12:29:37;13.90;99.90
18191;DHT22;47004;51.366;12.348;2023-10-19T12:31:39;13.90;99.90
18191;DHT22;47004;51.366;12.348;2023-10-19T12:33:42;14.20;99.90
18191;DHT22;47004;51.366;12.348;2023-10-19T12:35:45;14.00;99.90
18191;DHT22;47004;51.366;12.348;2023-10-19T12:37:50;14.00;99.90
18191;DHT22;47004;51.366;12.348;2023-10-19T12:39:52;13.90;99.90
18191;DHT22;47004;51.366;12.348;2023-10-19T12:41:57;13.90;99.90
18191;DHT22;47004;51.366;12.348;2023-10-19T12:43:59;13.90;99.90
18191;DHT22;47004;51.366;12.348;2023-10-19T12:46:03;13.90;99.90
18191;DHT22;47004;51.366;12.348;2023-10-19T12:48:09;13.90;99.90
18191;DHT22;47004;51.366;12.348;2023-10-19T12:50:13;13.90;99.90
18191;DHT22;47004;51.366;12.348;2023-10-19T12:52:15;13.90;99.90
18191;DHT22;47004;51.366;12.348;2023-10-19T12:54:17;13.90;99.90
18191;DHT22;47004;51.366;12.348;2023-10-19T12:56:19;13.80;99.90
18191;DHT22;47004;51.366;12.348;2023-10-19T12:58:21;13.90;99.90
18191;DHT22;47004;51.366;12.348;2023-10-19T13:00:23;13.80;99.90
18191;DHT22;47004;51.366;12.348;2023-10-19T13:02:26;13.80;99.90